Time;durP1;ratioP1;P1;durP2;ratioP2;P2;SDS_P1;SDS_P2;PMS_P1;PMS_P2;Temp;Humidity;BMP_temperature;BMP_pressure;BME280_temperature;BME280_humidity;BME280_pressure;Samples;Min_cycle;Max_cycle;Signal;HPM_P1;HPM_P2
2024/04/18 00:00:00;;;;;;;12.27;7.13;;;;;;;;;;5449831;26;19991;-60
2024/04/18 00:02:26;;;;;;;12.00;7.00;;;;;;;;;;5451531;26;19990;-61
2024/04/18 00:04:51;;;;;;;12.38;7.18;;;;;;;;;;5451233;26;20495;-60
2024/04/18 00:07:17;;;;;;;13.60;8.15;;;;;;;;;;5451199;26;20070;-60
2024/04/18 00:09:43;;;;;;;12.40;7.18;;;;;;;;;;5451281;26;20009;-60
2024/04/18 00:12:09;;;;;;;12.35;7.20;;;;;;;;;;5450882;26;20347;-61
2024/04/18 00:14:35;;;;;;;12.45;7.20;;;;;;;;;;5450831;26;20007;-59
2024/04/18 00:17:01;;;;;;;12.40;7.20;;;;;;;;;;5450772;26;20105;-61
2024/04/18 00:19:27;;;;;;;12.13;7.10;;;;;;;;;;5419090;26;19991;-60
2024/04/18 00:21:53;;;;;;;12.13;7.03;;;;;;;;;;5450707;26;19995;-59
2024/04/18 00:24:19;;;;;;;12.25;7.13;;;;;;;;;;5418778;26;20002;-61
2024/04/18 00:26:45;;;;;;;12.45;7.22;;;;;;;;;;5451014;26;20448;-60
2024/04/18 00:29:11;;;;;;;12.68;7.38;;;;;;;;;;5451124;26;20006;-61
2024/04/18 00:31:37;;;;;;;12.60;7.30;;;;;;;;;;5451189;26;19991;-61
2024/04/18 00:34:04;;;;;;;12.40;7.20;;;;;;;;;;5418670;26;19999;-61
2024/04/18 00:36:30;;;;;;;12.60;7.40;;;;;;;;;;5451035;26;20461;-59
2024/04/18 00:38:56;;;;;;;11.90;6.97;;;;;;;;;;5450662;26;19994;-62
2024/04/18 00:41:22;;;;;;;12.25;7.18;;;;;;;;;;5450967;26;20002;-58
2024/04/18 00:43:48;;;;;;;12.55;7.30;;;;;;;;;;5450390;26;19991;-60
2024/04/18 00:46:15;;;;;;;12.30;7.18;;;;;;;;;;5450613;26;20117;-59
2024/04/18 00:48:41;;;;;;;12.20;7.10;;;;;;;;;;5450518;26;19990;-58
2024/04/18 00:51:07;;;;;;;12.27;7.15;;;;;;;;;;5450954;26;19991;-60
2024/04/18 00:53:33;;;;;;;12.95;7.53;;;;;;;;;;5450386;26;20589;-61
2024/04/18 00:55:59;;;;;;;12.85;7.47;;;;;;;;;;5450651;26;20750;-60
2024/04/18 00:58:26;;;;;;;11.93;6.95;;;;;;;;;;5450690;26;20021;-57
2024/04/18 01:00:53;;;;;;;12.38;7.18;;;;;;;;;;5450735;26;20034;-60
2024/04/18 01:03:19;;;;;;;12.60;7.30;;;;;;;;;;5450085;26;20340;-58
2024/04/18 01:05:45;;;;;;;12.38;7.22;;;;;;;;;;5450495;26;19995;-61
2024/04/18 01:08:11;;;;;;;13.00;7.68;;;;;;;;;;5450361;26;20002;-59
2024/04/18 01:10:37;;;;;;;12.40;7.28;;;;;;;;;;5450534;26;20006;-61
2024/04/18 01:13:03;;;;;;;11.50;6.70;;;;;;;;;;5417975;26;20001;-58
2024/04/18 01:15:29;;;;;;;11.95;7.00;;;;;;;;;;5450078;26;19995;-62
2024/04/18 01:17:55;;;;;;;12.00;7.00;;;;;;;;;;5450027;26;19991;-59
2024/04/18 01:20:22;;;;;;;12.30;7.13;;;;;;;;;;5449989;26;19995;-60
2024/04/18 01:22:48;;;;;;;12.20;7.10;;;;;;;;;;5450006;26;19998;-59
2024/04/18 01:25:14;;;;;;;11.73;6.85;;;;;;;;;;5418171;26;20314;-60
2024/04/18 01:27:40;;;;;;;11.20;6.60;;;;;;;;;;5449577;26;19991;-62
2024/04/18 01:30:06;;;;;;;11.98;7.00;;;;;;;;;;5449997;26;20009;-60
2024/04/18 01:32:32;;;;;;;11.85;6.95;;;;;;;;;;5418154;26;20002;-60
2024/04/18 01:34:58;;;;;;;11.60;6.80;;;;;;;;;;5449701;26;20024;-60
2024/04/18 01:37:24;;;;;;;11.40;6.70;;;;;;;;;;5449842;26;20337;-61
2024/04/18 01:39:51;;;;;;;11.65;6.85;;;;;;;;;;5449784;26;20002;-60
2024/04/18 01:42:17;;;;;;;12.00;7.00;;;;;;;;;;5449925;26;19987;-60
2024/04/18 01:44:46;;;;;;;13.68;8.68;;;;;;;;;;5449598;26;20345;-59
2024/04/18 01:47:12;;;;;;;11.38;6.65;;;;;;;;;;5450025;26;20005;-61
2024/04/18 01:49:39;;;;;;;11.73;6.85;;;;;;;;;;5449825;26;20005;-61
2024/04/18 01:52:07;;;;;;;11.65;6.82;;;;;;;;;;5449705;26;19991;-60
2024/04/18 01:54:34;;;;;;;12.43;7.35;;;;;;;;;;5449704;26;19991;-59
2024/04/18 01:57:00;;;;;;;11.43;6.70;;;;;;;;;;5450247;26;20006;-62
2024/04/18 01:59:26;;;;;;;12.50;7.30;;;;;;;;;;5449710;26;20452;-61
2024/04/18 02:01:54;;;;;;;12.50;7.28;;;;;;;;;;5449740;26;20018;-61
2024/04/18 02:04:20;;;;;;;11.95;7.00;;;;;;;;;;5449233;26;20010;-61
2024/04/18 02:06:49;;;;;;;11.65;6.82;;;;;;;;;;5449144;26;20037;-61
2024/04/18 02:09:16;;;;;;;11.88;6.93;;;;;;;;;;5449494;26;20006;-60
2024/04/18 02:11:42;;;;;;;12.38;7.20;;;;;;;;;;5417257;26;20068;-58
2024/04/18 02:14:08;;;;;;;11.98;7.00;;;;;;;;;;5449099;26;20007;-61
2024/04/18 02:16:34;;;;;;;11.88;6.90;;;;;;;;;;5449478;26;19995;-59
2024/04/18 02:19:00;;;;;;;12.52;7.30;;;;;;;;;;5448934;26;19995;-59
2024/04/18 02:21:26;;;;;;;12.32;7.20;;;;;;;;;;5448960;26;19995;-61
2024/04/18 02:23:52;;;;;;;12.20;7.10;;;;;;;;;;5449235;26;19991;-61
2024/04/18 02:26:18;;;;;;;12.07;7.03;;;;;;;;;;5449378;26;19995;-62
2024/04/18 02:28:44;;;;;;;12.57;7.30;;;;;;;;;;5417196;26;20010;-61
2024/04/18 02:31:10;;;;;;;12.38;7.20;;;;;;;;;;5449618;26;20003;-59
2024/04/18 02:33:36;;;;;;;12.32;7.20;;;;;;;;;;5448624;26;20288;-60
2024/04/18 02:36:02;;;;;;;12.68;7.38;;;;;;;;;;5448965;26;20006;-60
2024/04/18 02:38:28;;;;;;;12.45;7.25;;;;;;;;;;5449149;26;20583;-61
2024/04/18 02:41:04;;;;;;;12.50;7.28;;;;;;;;;;5451410;26;19999;-61
2024/04/18 02:43:30;;;;;;;13.18;7.78;;;;;;;;;;5452385;26;19994;-61
2024/04/18 02:45:56;;;;;;;12.63;7.38;;;;;;;;;;5452416;26;20001;-61
2024/04/18 02:48:22;;;;;;;12.40;7.20;;;;;;;;;;5452701;26;19995;-61
2024/04/18 02:50:48;;;;;;;12.18;7.10;;;;;;;;;;5420776;26;20014;-61
2024/04/18 02:53:14;;;;;;;12.40;7.25;;;;;;;;;;5452252;26;20654;-61
2024/04/18 02:55:40;;;;;;;12.05;7.00;;;;;;;;;;5452555;26;19995;-62
2024/04/18 02:58:06;;;;;;;12.20;7.10;;;;;;;;;;5452648;26;19995;-60
2024/04/18 03:00:35;;;;;;;12.90;7.43;;;;;;;;;;5451939;26;20383;-62
2024/04/18 03:03:01;;;;;;;12.48;7.30;;;;;;;;;;5451898;26;20445;-60
2024/04/18 03:05:27;;;;;;;12.30;7.10;;;;;;;;;;5452232;26;19998;-61
2024/04/18 03:07:56;;;;;;;12.38;7.20;;;;;;;;;;5452115;26;20313;-62
2024/04/18 03:10:22;;;;;;;12.55;7.30;;;;;;;;;;5420548;26;20600;-60
2024/04/18 03:12:48;;;;;;;12.63;7.40;;;;;;;;;;5452357;26;20014;-60
2024/04/18 03:15:14;;;;;;;12.60;7.30;;;;;;;;;;5452301;26;20007;-61
2024/04/18 03:17:40;;;;;;;12.93;7.55;;;;;;;;;;5452162;26;20449;-61
2024/04/18 03:20:07;;;;;;;12.95;7.53;;;;;;;;;;5420482;26;20042;-60
2024/04/18 03:22:34;;;;;;;12.55;7.28;;;;;;;;;;5420405;26;19995;-59
2024/04/18 03:25:01;;;;;;;12.35;7.20;;;;;;;;;;5451946;26;19995;-61
2024/04/18 03:27:30;;;;;;;12.82;7.47;;;;;;;;;;5452203;26;20005;-59
2024/04/18 03:29:56;;;;;;;12.02;7.03;;;;;;;;;;5452002;26;19995;-60
2024/04/18 03:32:23;;;;;;;12.10;7.03;;;;;;;;;;5452091;26;20068;-61
2024/04/18 03:34:52;;;;;;;12.13;7.07;;;;;;;;;;5451441;26;19995;-61
2024/04/18 03:37:17;;;;;;;12.30;7.20;;;;;;;;;;5452069;26;19998;-61
2024/04/18 03:39:43;;;;;;;12.85;7.50;;;;;;;;;;5451300;26;20002;-61
2024/04/18 03:42:09;;;;;;;12.70;7.40;;;;;;;;;;5451789;26;20006;-61
2024/04/18 03:44:36;;;;;;;12.50;7.25;;;;;;;;;;5451145;26;20002;-65
2024/04/18 03:47:02;;;;;;;12.55;7.32;;;;;;;;;;5452204;26;20003;-58
2024/04/18 03:49:28;;;;;;;12.80;7.50;;;;;;;;;;5420037;26;20089;-61
2024/04/18 03:51:55;;;;;;;12.50;7.28;;;;;;;;;;5451916;26;19999;-61
2024/04/18 03:54:21;;;;;;;12.65;7.40;;;;;;;;;;5451987;26;20002;-61
2024/04/18 03:56:48;;;;;;;12.70;7.40;;;;;;;;;;5420407;26;19999;-61
2024/04/18 03:59:14;;;;;;;12.90;7.50;;;;;;;;;;5451954;26;20050;-60
2024/04/18 04:01:40;;;;;;;12.43;7.20;;;;;;;;;;5419941;26;20106;-60
2024/04/18 04:04:09;;;;;;;12.63;7.35;;;;;;;;;;5451466;26;20054;-59
2024/04/18 04:06:35;;;;;;;12.98;7.70;;;;;;;;;;5451475;26;20067;-62
2024/04/18 04:09:01;;;;;;;13.32;7.85;;;;;;;;;;5451348;26;20014;-61
2024/04/18 04:11:27;;;;;;;13.32;8.20;;;;;;;;;;5451301;26;19999;-62
2024/04/18 04:13:54;;;;;;;13.48;8.20;;;;;;;;;;5450893;26;20006;-57
2024/04/18 04:16:20;;;;;;;13.27;7.97;;;;;;;;;;5451037;26;20006;-61
2024/04/18 04:18:50;;;;;;;13.50;8.32;;;;;;;;;;5451234;26;20006;-61
2024/04/18 04:21:16;;;;;;;13.25;7.97;;;;;;;;;;5450933;26;19994;-60
2024/04/18 04:23:42;;;;;;;13.27;7.88;;;;;;;;;;5447708;26;20017;-60
2024/04/18 04:26:08;;;;;;;13.30;7.90;;;;;;;;;;5418755;26;19995;-62
2024/04/18 04:28:34;;;;;;;13.18;7.75;;;;;;;;;;5450840;26;20489;-58
2024/04/18 04:31:00;;;;;;;13.32;7.82;;;;;;;;;;5451044;26;19999;-59
2024/04/18 04:33:31;;;;;;;13.32;8.02;;;;;;;;;;5449890;26;19998;-60
2024/04/18 04:35:57;;;;;;;13.15;7.68;;;;;;;;;;5450564;26;20006;-61
2024/04/18 04:38:24;;;;;;;13.20;7.80;;;;;;;;;;5450664;26;19999;-59
2024/04/18 04:40:50;;;;;;;13.13;7.75;;;;;;;;;;5449733;26;19995;-59
2024/04/18 04:43:16;;;;;;;13.23;7.82;;;;;;;;;;5449513;26;20017;-58
2024/04/18 04:45:42;;;;;;;13.13;7.70;;;;;;;;;;5450059;26;20063;-60
2024/04/18 04:48:08;;;;;;;13.38;7.90;;;;;;;;;;5450788;26;20064;-61
2024/04/18 04:50:37;;;;;;;13.38;8.00;;;;;;;;;;5450435;26;20006;-60
2024/04/18 04:53:03;;;;;;;13.40;8.07;;;;;;;;;;5450206;26;19998;-61
2024/04/18 04:55:29;;;;;;;13.38;8.10;;;;;;;;;;5448027;26;20010;-60
2024/04/18 04:57:55;;;;;;;13.38;8.05;;;;;;;;;;5450250;26;20003;-60
2024/04/18 05:00:22;;;;;;;13.55;8.50;;;;;;;;;;5449648;26;20463;-62
2024/04/18 05:02:47;;;;;;;13.57;8.40;;;;;;;;;;5448010;26;19999;-61
2024/04/18 05:05:13;;;;;;;13.52;8.30;;;;;;;;;;5449626;26;19999;-60
2024/04/18 05:07:39;;;;;;;13.57;8.50;;;;;;;;;;5449617;26;19995;-61
2024/04/18 05:10:06;;;;;;;13.60;8.70;;;;;;;;;;5449744;26;20129;-58
2024/04/18 05:12:32;;;;;;;13.52;8.40;;;;;;;;;;5449640;26;20383;-63
2024/04/18 05:14:58;;;;;;;13.65;8.80;;;;;;;;;;5449263;26;20102;-62
2024/04/18 05:17:24;;;;;;;13.48;8.27;;;;;;;;;;5449732;26;20031;-61
2024/04/18 05:19:51;;;;;;;13.43;8.25;;;;;;;;;;5449106;26;20414;-62
2024/04/18 05:22:17;;;;;;;13.55;8.40;;;;;;;;;;5425749;26;20020;-59
2024/04/18 05:24:43;;;;;;;13.45;8.38;;;;;;;;;;5485631;26;20448;-62
2024/04/18 05:27:09;;;;;;;13.43;8.18;;;;;;;;;;5485622;26;20005;-61
2024/04/18 05:32:20;;;;;;;13.57;8.60;;;;;;;;;;5485206;26;20070;-61
2024/04/18 05:34:45;;;;;;;13.68;8.88;;;;;;;;;;5485032;26;20410;-61
2024/04/18 05:37:12;;;;;;;13.70;8.88;;;;;;;;;;5485713;26;19994;-58
2024/04/18 05:39:37;;;;;;;14.10;9.73;;;;;;;;;;5453481;26;19994;-59
2024/04/18 05:42:04;;;;;;;13.77;9.20;;;;;;;;;;5485326;26;20087;-58
2024/04/18 05:44:30;;;;;;;13.82;9.35;;;;;;;;;;5474961;21;20004;-63
2024/04/18 05:46:56;;;;;;;13.88;9.45;;;;;;;;;;5411940;26;19995;-61
2024/04/18 05:49:22;;;;;;;13.98;9.52;;;;;;;;;;5411532;26;19996;-64
2024/04/18 05:51:49;;;;;;;13.93;9.40;;;;;;;;;;5409949;26;20394;-66
2024/04/18 05:54:15;;;;;;;13.90;9.35;;;;;;;;;;5410515;26;20010;-62
2024/04/18 05:56:42;;;;;;;14.07;9.77;;;;;;;;;;5411702;26;20003;-63
2024/04/18 05:59:08;;;;;;;14.07;9.88;;;;;;;;;;5410707;26;20031;-62
2024/04/18 06:01:33;;;;;;;14.00;9.77;;;;;;;;;;5410486;26;19999;-60
2024/04/18 06:04:00;;;;;;;14.30;10.38;;;;;;;;;;5410101;26;20651;-63
2024/04/18 06:06:26;;;;;;;14.15;10.07;;;;;;;;;;5410936;26;19991;-62
2024/04/18 06:08:54;;;;;;;14.30;10.45;;;;;;;;;;5410679;26;20005;-58
2024/04/18 06:11:31;;;;;;;14.38;10.52;;;;;;;;;;5408965;26;20065;-62
2024/04/18 06:13:57;;;;;;;14.30;10.50;;;;;;;;;;5410456;26;20003;-63
2024/04/18 06:16:23;;;;;;;14.30;10.40;;;;;;;;;;5410409;26;20034;-62
2024/04/18 06:18:49;;;;;;;14.27;10.32;;;;;;;;;;5410998;26;20341;-64
2024/04/18 06:21:15;;;;;;;14.45;10.88;;;;;;;;;;5410741;26;20058;-63
2024/04/18 06:23:41;;;;;;;14.40;10.73;;;;;;;;;;5408123;26;20031;-63
2024/04/18 06:26:07;;;;;;;14.25;10.27;;;;;;;;;;5410401;26;20446;-63
2024/04/18 06:28:33;;;;;;;14.30;10.63;;;;;;;;;;5410062;26;20004;-63
2024/04/18 06:30:59;;;;;;;14.27;10.50;;;;;;;;;;5410954;26;19992;-62
2024/04/18 06:33:29;;;;;;;14.25;10.35;;;;;;;;;;5409894;26;20464;-61
2024/04/18 06:35:55;;;;;;;14.60;11.20;;;;;;;;;;5409588;26;19995;-63
2024/04/18 06:38:21;;;;;;;14.32;10.57;;;;;;;;;;5409429;26;20076;-62
2024/04/18 06:40:47;;;;;;;14.45;10.82;;;;;;;;;;5409926;26;20458;-64
2024/04/18 06:43:13;;;;;;;14.35;10.68;;;;;;;;;;5409315;26;19991;-63
2024/04/18 06:45:39;;;;;;;14.40;10.70;;;;;;;;;;5410130;26;19992;-61
2024/04/18 06:48:07;;;;;;;14.38;10.68;;;;;;;;;;5409880;26;20531;-63
2024/04/18 06:50:33;;;;;;;14.38;10.52;;;;;;;;;;5409748;26;20338;-61
2024/04/18 06:52:59;;;;;;;14.02;9.93;;;;;;;;;;5409115;26;20002;-62
2024/04/18 06:55:25;;;;;;;14.40;10.70;;;;;;;;;;5409681;26;20068;-62
2024/04/18 06:57:51;;;;;;;14.30;10.50;;;;;;;;;;5409320;26;20438;-61
2024/04/18 07:00:17;;;;;;;14.10;9.88;;;;;;;;;;5409305;26;20009;-64
2024/04/18 07:02:44;;;;;;;13.95;9.70;;;;;;;;;;5408900;26;20043;-60
2024/04/18 07:05:10;;;;;;;14.30;10.52;;;;;;;;;;5409258;26;20007;-63
2024/04/18 07:07:36;;;;;;;14.30;10.50;;;;;;;;;;5409377;26;20043;-61
2024/04/18 07:10:02;;;;;;;14.05;9.82;;;;;;;;;;5409243;26;19995;-62
2024/04/18 07:12:28;;;;;;;14.10;10.20;;;;;;;;;;5409977;26;20003;-62
2024/04/18 07:14:54;;;;;;;14.27;10.52;;;;;;;;;;5410151;26;20000;-61
2024/04/18 07:17:20;;;;;;;14.30;10.50;;;;;;;;;;5409677;26;20403;-63
2024/04/18 07:19:46;;;;;;;14.30;10.60;;;;;;;;;;5409582;26;19999;-63
2024/04/18 07:22:12;;;;;;;14.30;10.50;;;;;;;;;;5406984;26;19992;-58
2024/04/18 07:24:38;;;;;;;14.20;10.15;;;;;;;;;;5373269;26;20012;-62
2024/04/18 07:27:04;;;;;;;14.20;10.25;;;;;;;;;;5376804;26;20065;-61
2024/04/18 07:29:30;;;;;;;14.88;11.63;;;;;;;;;;5375572;26;20067;-60
2024/04/18 07:31:56;;;;;;;14.23;10.38;;;;;;;;;;5377017;26;19992;-60
2024/04/18 07:34:22;;;;;;;14.30;10.55;;;;;;;;;;5376746;26;20012;-56
2024/04/18 07:36:48;;;;;;;14.32;10.65;;;;;;;;;;5377667;26;20011;-61
2024/04/18 07:39:14;;;;;;;14.25;10.23;;;;;;;;;;5377644;26;20003;-60
2024/04/18 07:41:40;;;;;;;14.40;10.75;;;;;;;;;;5376878;26;20023;-61
2024/04/18 07:44:11;;;;;;;14.20;10.20;;;;;;;;;;5376888;26;20477;-62
2024/04/18 07:46:38;;;;;;;14.30;10.50;;;;;;;;;;5376360;26;19996;-63
2024/04/18 07:49:04;;;;;;;14.20;10.25;;;;;;;;;;5376788;26;19996;-56
2024/04/18 07:51:30;;;;;;;14.50;10.98;;;;;;;;;;5376643;26;20006;-61
2024/04/18 07:53:56;;;;;;;14.40;10.73;;;;;;;;;;5375998;26;20011;-61
2024/04/18 07:56:22;;;;;;;14.40;10.70;;;;;;;;;;5377320;26;19992;-61
2024/04/18 07:58:48;;;;;;;14.20;10.38;;;;;;;;;;5376703;26;19992;-61
2024/04/18 08:01:14;;;;;;;14.43;10.88;;;;;;;;;;5376865;26;20426;-62
2024/04/18 08:03:40;;;;;;;14.30;10.70;;;;;;;;;;5375735;26;19996;-61
2024/04/18 08:06:06;;;;;;;14.27;10.65;;;;;;;;;;5376357;26;20010;-61
2024/04/18 08:08:32;;;;;;;14.25;10.32;;;;;;;;;;5376769;26;20015;-65
2024/04/18 08:10:58;;;;;;;14.30;10.50;;;;;;;;;;5376838;26;20423;-62
2024/04/18 08:13:24;;;;;;;14.30;10.70;;;;;;;;;;5376587;26;20385;-59
2024/04/18 08:15:50;;;;;;;14.30;10.55;;;;;;;;;;5376927;26;20081;-62
2024/04/18 08:18:16;;;;;;;14.30;10.40;;;;;;;;;;5374699;26;19996;-61
2024/04/18 08:20:46;;;;;;;14.27;10.35;;;;;;;;;;5377054;26;20016;-62
2024/04/18 08:23:19;;;;;;;14.20;10.23;;;;;;;;;;5375676;26;20032;-62
2024/04/18 08:25:45;;;;;;;14.38;10.65;;;;;;;;;;5376130;26;20003;-60
2024/04/18 08:28:11;;;;;;;14.15;10.15;;;;;;;;;;5375397;26;20035;-63
2024/04/18 08:30:37;;;;;;;14.13;10.18;;;;;;;;;;5374728;26;20190;-59
2024/04/18 08:33:03;;;;;;;14.32;10.68;;;;;;;;;;5373905;26;20107;-59
2024/04/18 08:35:29;;;;;;;14.32;10.73;;;;;;;;;;5372325;26;20054;-63
2024/04/18 08:37:55;;;;;;;14.15;10.20;;;;;;;;;;5373113;26;20000;-61
2024/04/18 08:40:21;;;;;;;14.40;10.73;;;;;;;;;;5374085;26;20003;-63
2024/04/18 08:42:47;;;;;;;14.30;10.50;;;;;;;;;;5373218;26;20042;-57
2024/04/18 08:45:14;;;;;;;14.20;10.20;;;;;;;;;;5373306;26;20054;-63
2024/04/18 08:47:41;;;;;;;14.40;10.80;;;;;;;;;;5374143;26;20330;-62
2024/04/18 08:50:08;;;;;;;14.50;11.07;;;;;;;;;;5373919;26;20291;-63
2024/04/18 08:52:36;;;;;;;14.57;11.20;;;;;;;;;;5375399;26;20375;-62
2024/04/18 08:55:02;;;;;;;14.30;10.45;;;;;;;;;;5375490;26;20040;-63
2024/04/18 08:57:30;;;;;;;14.27;10.60;;;;;;;;;;5375996;26;20011;-60
2024/04/18 08:59:59;;;;;;;14.50;11.10;;;;;;;;;;5376157;26;20015;-63
2024/04/18 09:02:26;;;;;;;14.25;10.50;;;;;;;;;;5375263;26;20065;-62
2024/04/18 09:04:52;;;;;;;14.38;11.05;;;;;;;;;;5375446;26;20015;-64
2024/04/18 09:07:18;;;;;;;14.32;10.73;;;;;;;;;;5376146;26;19992;-64
2024/04/18 09:09:46;;;;;;;19.55;11.98;;;;;;;;;;5376851;26;20008;-60
2024/04/18 09:12:13;;;;;;;14.40;10.88;;;;;;;;;;5375792;26;20000;-63
2024/04/18 09:14:39;;;;;;;14.20;10.40;;;;;;;;;;5375309;26;20013;-62
2024/04/18 09:17:14;;;;;;;14.27;10.57;;;;;;;;;;5375597;26;20000;-58
2024/04/18 09:19:40;;;;;;;14.35;10.68;;;;;;;;;;5375582;26;19992;-61
2024/04/18 09:22:06;;;;;;;14.32;10.70;;;;;;;;;;5375583;26;20079;-61
2024/04/18 09:24:32;;;;;;;14.52;11.25;;;;;;;;;;5410389;26;20345;-60
2024/04/18 09:26:59;;;;;;;14.40;10.88;;;;;;;;;;5410754;26;20298;-61
2024/04/18 09:29:25;;;;;;;14.40;11.00;;;;;;;;;;5410999;26;20072;-62
2024/04/18 09:31:52;;;;;;;15.35;12.75;;;;;;;;;;5410863;26;20003;-61
2024/04/18 09:34:18;;;;;;;14.25;10.32;;;;;;;;;;5409896;26;19991;-59
2024/04/18 09:36:45;;;;;;;14.02;9.93;;;;;;;;;;5410923;26;20074;-59
2024/04/18 09:39:18;;;;;;;14.07;10.00;;;;;;;;;;5410804;26;20420;-58
2024/04/18 09:41:44;;;;;;;14.07;10.02;;;;;;;;;;5410685;26;19995;-60
2024/04/18 09:44:15;;;;;;;14.38;10.70;;;;;;;;;;5409913;26;20487;-62
2024/04/18 09:46:41;;;;;;;14.40;10.88;;;;;;;;;;5411158;26;20400;-64
2024/04/18 09:49:08;;;;;;;14.05;10.02;;;;;;;;;;5410080;26;20484;-60
2024/04/18 09:51:34;;;;;;;14.07;9.95;;;;;;;;;;5410647;26;20003;-60
2024/04/18 09:54:01;;;;;;;14.02;10.00;;;;;;;;;;5408091;26;20389;-60
2024/04/18 09:56:28;;;;;;;14.00;9.88;;;;;;;;;;5410095;26;20025;-55
2024/04/18 09:58:54;;;;;;;13.80;9.27;;;;;;;;;;5409159;26;20356;-57
2024/04/18 10:01:20;;;;;;;14.40;10.27;;;;;;;;;;5411159;26;19999;-56
2024/04/18 10:03:46;;;;;;;13.98;9.82;;;;;;;;;;5409793;26;20003;-61
2024/04/18 10:06:14;;;;;;;14.07;9.95;;;;;;;;;;5411210;26;20027;-60
2024/04/18 10:08:42;;;;;;;13.85;9.38;;;;;;;;;;5410760;26;20095;-59
2024/04/18 10:11:09;;;;;;;13.80;9.30;;;;;;;;;;5409991;26;19996;-62
2024/04/18 10:13:38;;;;;;;14.02;9.38;;;;;;;;;;5409909;26;20006;-62
2024/04/18 10:16:04;;;;;;;14.43;10.95;;;;;;;;;;5408559;26;19992;-61
2024/04/18 10:18:37;;;;;;;14.48;10.95;;;;;;;;;;5409634;26;19991;-61
2024/04/18 10:21:26;;;;;;;14.20;10.38;;;;;;;;;;5410911;26;19996;-63
2024/04/18 10:23:53;;;;;;;14.20;10.32;;;;;;;;;;5407931;26;20003;-62
2024/04/18 10:26:22;;;;;;;14.18;10.35;;;;;;;;;;5409981;26;20010;-63
2024/04/18 10:28:49;;;;;;;14.35;10.73;;;;;;;;;;5408184;26;20103;-58
2024/04/18 10:31:16;;;;;;;14.30;10.57;;;;;;;;;;5410058;26;20011;-58
2024/04/18 10:33:43;;;;;;;14.40;10.90;;;;;;;;;;5410151;26;19996;-63
2024/04/18 10:36:12;;;;;;;14.63;11.43;;;;;;;;;;5410277;26;20006;-59
2024/04/18 10:38:45;;;;;;;14.30;10.77;;;;;;;;;;5409935;26;20086;-62
2024/04/18 10:41:15;;;;;;;14.40;10.90;;;;;;;;;;5409949;26;20036;-63
2024/04/18 10:43:45;;;;;;;14.38;10.73;;;;;;;;;;5408752;26;20455;-64
2024/04/18 10:46:12;;;;;;;14.40;10.77;;;;;;;;;;5409872;26;19996;-61
2024/04/18 10:48:38;;;;;;;14.27;10.52;;;;;;;;;;5410009;26;20002;-60
2024/04/18 10:51:05;;;;;;;14.50;11.10;;;;;;;;;;5409336;26;19995;-62
2024/04/18 10:53:34;;;;;;;14.52;11.27;;;;;;;;;;5409680;26;20010;-63
2024/04/18 10:56:01;;;;;;;14.70;11.10;;;;;;;;;;5410264;26;20006;-60
2024/04/18 10:58:27;;;;;;;14.63;11.35;;;;;;;;;;5409883;26;20010;-63
2024/04/18 11:00:59;;;;;;;14.45;10.95;;;;;;;;;;5411292;26;19995;-62
2024/04/18 11:03:27;;;;;;;14.27;10.63;;;;;;;;;;5413275;26;19999;-63
2024/04/18 11:05:53;;;;;;;14.25;10.60;;;;;;;;;;5413586;26;20007;-58
2024/04/18 11:08:19;;;;;;;14.52;11.30;;;;;;;;;;5413178;26;20313;-62
2024/04/18 11:10:45;;;;;;;15.07;11.10;;;;;;;;;;5413194;26;20056;-62
2024/04/18 11:13:13;;;;;;;15.93;11.90;;;;;;;;;;5412010;26;20050;-63
2024/04/18 11:15:39;;;;;;;14.63;11.50;;;;;;;;;;5412837;26;19996;-62
2024/04/18 11:18:05;;;;;;;15.23;11.50;;;;;;;;;;5413577;26;20003;-61
2024/04/18 11:20:32;;;;;;;14.23;10.45;;;;;;;;;;5412523;26;20000;-62
2024/04/18 11:22:58;;;;;;;14.27;10.63;;;;;;;;;;5412416;26;20054;-62
2024/04/18 11:25:24;;;;;;;14.30;10.48;;;;;;;;;;5413284;26;20388;-64
2024/04/18 11:27:51;;;;;;;14.23;10.35;;;;;;;;;;5412993;26;20655;-61
2024/04/18 11:30:19;;;;;;;14.20;10.40;;;;;;;;;;5413200;26;20007;-60
2024/04/18 11:33:01;;;;;;;14.60;11.35;;;;;;;;;;5412775;26;20344;-63
2024/04/18 11:35:27;;;;;;;14.40;10.95;;;;;;;;;;5412915;26;20322;-63
2024/04/18 11:37:55;;;;;;;14.35;10.70;;;;;;;;;;5412930;26;20121;-62
2024/04/18 11:40:21;;;;;;;14.40;10.90;;;;;;;;;;5412014;26;20017;-58
2024/04/18 11:42:47;;;;;;;14.38;10.75;;;;;;;;;;5411642;26;20208;-60
2024/04/18 11:45:13;;;;;;;14.75;11.70;;;;;;;;;;5412448;26;20007;-59
2024/04/18 11:47:39;;;;;;;14.60;11.40;;;;;;;;;;5412397;26;20007;-60
2024/04/18 11:50:06;;;;;;;14.70;11.60;;;;;;;;;;5412754;26;19995;-61
2024/04/18 11:52:32;;;;;;;14.77;11.88;;;;;;;;;;5412090;26;20449;-62
2024/04/18 11:54:58;;;;;;;15.93;11.90;;;;;;;;;;5411925;26;20133;-59
2024/04/18 11:57:24;;;;;;;14.65;11.55;;;;;;;;;;5413484;26;20004;-60
2024/04/18 11:59:50;;;;;;;14.90;12.13;;;;;;;;;;5411308;26;19999;-62
2024/04/18 12:02:16;;;;;;;14.90;12.25;;;;;;;;;;5411484;26;19996;-62
2024/04/18 12:04:42;;;;;;;14.90;12.18;;;;;;;;;;5412065;26;20008;-62
2024/04/18 12:07:08;;;;;;;15.00;12.45;;;;;;;;;;5412607;26;19999;-60
2024/04/18 12:09:36;;;;;;;14.80;11.90;;;;;;;;;;5413136;26;19991;-62
2024/04/18 12:12:04;;;;;;;14.70;11.68;;;;;;;;;;5412146;26;20004;-62
2024/04/18 12:14:30;;;;;;;14.65;11.75;;;;;;;;;;5412126;26;20366;-59
2024/04/18 12:16:56;;;;;;;14.60;11.40;;;;;;;;;;5412531;26;19992;-61
2024/04/18 12:19:22;;;;;;;15.00;12.48;;;;;;;;;;5412547;26;20060;-61
2024/04/18 12:21:48;;;;;;;14.75;11.82;;;;;;;;;;5411990;26;20087;-63
2024/04/18 12:24:14;;;;;;;14.90;12.20;;;;;;;;;;5411588;26;20072;-63
2024/04/18 12:26:41;;;;;;;14.85;12.20;;;;;;;;;;5412448;26;20031;-63
2024/04/18 12:29:07;;;;;;;14.90;12.25;;;;;;;;;;5412155;26;20399;-60
2024/04/18 12:31:33;;;;;;;14.57;11.30;;;;;;;;;;5411814;26;20003;-61
2024/04/18 12:33:59;;;;;;;14.65;11.60;;;;;;;;;;5411551;26;20070;-63
2024/04/18 12:36:25;;;;;;;15.20;13.10;;;;;;;;;;5411627;26;20002;-63
2024/04/18 12:38:51;;;;;;;14.90;12.40;;;;;;;;;;5411579;26;20003;-59
2024/04/18 12:41:17;;;;;;;14.82;12.20;;;;;;;;;;5411479;26;20499;-63
2024/04/18 12:43:43;;;;;;;14.90;12.20;;;;;;;;;;5410816;26;19995;-62
2024/04/18 12:46:11;;;;;;;14.90;12.05;;;;;;;;;;5411816;26;20006;-62
2024/04/18 12:48:37;;;;;;;14.73;11.68;;;;;;;;;;5411879;26;20403;-60
2024/04/18 12:51:05;;;;;;;14.90;12.18;;;;;;;;;;5411581;26;19992;-61
2024/04/18 12:53:37;;;;;;;14.80;11.90;;;;;;;;;;5411903;26;20003;-64
2024/04/18 12:56:03;;;;;;;14.80;11.80;;;;;;;;;;5412245;26;20007;-60
2024/04/18 12:58:29;;;;;;;14.70;11.73;;;;;;;;;;5411946;26;19995;-60
2024/04/18 13:00:55;;;;;;;14.73;11.68;;;;;;;;;;5411626;26;20598;-63
2024/04/18 13:03:21;;;;;;;14.90;12.00;;;;;;;;;;5410701;26;19996;-60
2024/04/18 13:05:47;;;;;;;14.95;12.27;;;;;;;;;;5411713;26;20215;-63
2024/04/18 13:08:13;;;;;;;14.70;11.77;;;;;;;;;;5411688;26;20307;-62
2024/04/18 13:10:39;;;;;;;14.80;12.05;;;;;;;;;;5411680;26;20010;-63
2024/04/18 13:13:05;;;;;;;15.15;12.50;;;;;;;;;;5410585;26;20006;-58
2024/04/18 13:15:31;;;;;;;14.70;11.60;;;;;;;;;;5411772;26;20105;-62
2024/04/18 13:17:57;;;;;;;14.50;11.10;;;;;;;;;;5411440;26;20000;-63
2024/04/18 13:20:23;;;;;;;14.50;11.18;;;;;;;;;;5411703;26;20322;-60
2024/04/18 13:22:49;;;;;;;14.60;11.38;;;;;;;;;;5411007;26;20004;-60
2024/04/18 13:25:15;;;;;;;14.60;11.50;;;;;;;;;;5409013;26;20006;-59
2024/04/18 13:27:41;;;;;;;14.43;10.98;;;;;;;;;;5411657;26;20056;-59
2024/04/18 13:30:07;;;;;;;14.70;11.60;;;;;;;;;;5411152;26;20060;-62
2024/04/18 13:32:37;;;;;;;14.50;11.30;;;;;;;;;;5408447;26;20327;-62
2024/04/18 13:35:03;;;;;;;14.27;10.68;;;;;;;;;;5409958;26;20003;-59
2024/04/18 13:37:29;;;;;;;14.55;11.27;;;;;;;;;;5410786;26;19996;-63
2024/04/18 13:39:56;;;;;;;14.55;11.27;;;;;;;;;;5410764;26;20030;-61
2024/04/18 13:42:22;;;;;;;14.70;11.70;;;;;;;;;;5411195;26;19995;-60
2024/04/18 13:44:47;;;;;;;14.70;11.77;;;;;;;;;;5410492;26;20457;-62
2024/04/18 13:47:14;;;;;;;14.80;11.95;;;;;;;;;;5410074;26;19991;-63
2024/04/18 13:49:40;;;;;;;14.50;11.10;;;;;;;;;;5410750;26;19987;-63
2024/04/18 13:52:06;;;;;;;14.60;11.45;;;;;;;;;;5411450;26;20305;-60
2024/04/18 13:54:35;;;;;;;14.55;11.43;;;;;;;;;;5410786;26;20004;-63
2024/04/18 13:57:04;;;;;;;14.57;11.27;;;;;;;;;;5410274;26;19991;-65
2024/04/18 13:59:30;;;;;;;14.30;10.82;;;;;;;;;;5410353;26;20072;-61
2024/04/18 14:01:56;;;;;;;14.60;11.38;;;;;;;;;;5409550;26;19991;-58
2024/04/18 14:04:22;;;;;;;14.57;11.30;;;;;;;;;;5409985;26;19992;-62
2024/04/18 14:06:48;;;;;;;14.23;10.45;;;;;;;;;;5409022;26;19992;-63
2024/04/18 14:09:14;;;;;;;14.30;10.60;;;;;;;;;;5408079;26;20635;-61
2024/04/18 14:11:41;;;;;;;14.30;10.73;;;;;;;;;;5411996;26;20006;-63
2024/04/18 14:14:08;;;;;;;14.60;11.23;;;;;;;;;;5410143;26;19987;-62
2024/04/18 14:19:20;;;;;;;14.30;10.77;;;;;;;;;;5410284;26;20317;-61
2024/04/18 14:21:46;;;;;;;14.45;11.13;;;;;;;;;;5411481;26;20072;-60
2024/04/18 14:24:12;;;;;;;14.50;11.18;;;;;;;;;;5409890;26;20388;-61